Terminal Aerodrome Forecast
Issued by NWS Portland, OR

Home | Current Version | Previous Version | Text Only | Print | Product List | Glossary On
Versions: 1 2 3 4 5 6 7 8 9 10 11 12 13 14 15 16 17 18 19 20 21 22 23 24 25 26 27 28 29 30 31 32 33 34 35 36 37 38 39 40 41 42 43 44 45 46 47 48
000
FTUS46 KPQR 102326
TAFSLE
TAF
KSLE 102326Z 1100/1124 21010G18KT P6SM -SHRA SCT025 BKN045
     FM110800 20009KT P6SM -SHRA BKN025 OVC045
     FM111200 19006KT P6SM -SHRA BKN015 OVC035
     FM111900 19012G20KT P6SM SCT020 BKN035 BKN050=

USA.gov is the U.S. government's official web portal to all federal, state and local government web resources and services.